sensor_id;sensor_type;location;lat;lon;timestamp;P1;durP1;ratioP1;P2;durP2;ratioP2
3601;SDS011;1815;50.950;6.920;2023-06-24T00:01:58;4.80;;;4.13;;
3601;SDS011;1815;50.950;6.920;2023-06-24T00:04:24;6.83;;;5.00;;
3601;SDS011;1815;50.950;6.920;2023-06-24T00:06:50;8.63;;;3.90;;
3601;SDS011;1815;50.950;6.920;2023-06-24T00:09:17;5.50;;;4.33;;
3601;SDS011;1815;50.950;6.920;2023-06-24T00:11:43;6.20;;;4.07;;
3601;SDS011;1815;50.950;6.920;2023-06-24T00:14:09;4.90;;;3.87;;
3601;SDS011;1815;50.950;6.920;2023-06-24T00:16:36;6.40;;;3.63;;
3601;SDS011;1815;50.950;6.920;2023-06-24T00:19:01;5.20;;;3.90;;
3601;SDS011;1815;50.950;6.920;2023-06-24T00:21:28;4.00;;;3.30;;
3601;SDS011;1815;50.950;6.920;2023-06-24T00:23:59;4.90;;;4.47;;
3601;SDS011;1815;50.950;6.920;2023-06-24T00:26:27;5.23;;;4.70;;
3601;SDS011;1815;50.950;6.920;2023-06-24T00:28:53;5.20;;;4.17;;
3601;SDS011;1815;50.950;6.920;2023-06-24T00:31:19;6.30;;;5.70;;
3601;SDS011;1815;50.950;6.920;2023-06-24T00:33:47;6.20;;;4.77;;
3601;SDS011;1815;50.950;6.920;2023-06-24T00:36:16;6.83;;;5.47;;
3601;SDS011;1815;50.950;6.920;2023-06-24T00:38:41;5.13;;;4.60;;
3601;SDS011;1815;50.950;6.920;2023-06-24T00:41:07;5.97;;;5.37;;
3601;SDS011;1815;50.950;6.920;2023-06-24T00:43:33;6.10;;;5.00;;
3601;SDS011;1815;50.950;6.920;2023-06-24T00:46:00;5.83;;;4.90;;
3601;SDS011;1815;50.950;6.920;2023-06-24T00:48:27;6.67;;;5.17;;
3601;SDS011;1815;50.950;6.920;2023-06-24T00:50:55;6.03;;;5.47;;
3601;SDS011;1815;50.950;6.920;2023-06-24T00:53:25;6.60;;;5.90;;
3601;SDS011;1815;50.950;6.920;2023-06-24T00:55:51;5.50;;;5.00;;
3601;SDS011;1815;50.950;6.920;2023-06-24T00:58:19;5.50;;;4.97;;
3601;SDS011;1815;50.950;6.920;2023-06-24T01:00:46;9.13;;;6.07;;
3601;SDS011;1815;50.950;6.920;2023-06-24T01:03:13;6.33;;;5.10;;
3601;SDS011;1815;50.950;6.920;2023-06-24T01:05:48;5.43;;;4.93;;
3601;SDS011;1815;50.950;6.920;2023-06-24T01:08:14;5.80;;;5.20;;
3601;SDS011;1815;50.950;6.920;2023-06-24T01:10:41;6.30;;;5.10;;
3601;SDS011;1815;50.950;6.920;2023-06-24T01:13:10;6.87;;;5.63;;
3601;SDS011;1815;50.950;6.920;2023-06-24T01:15:36;4.90;;;4.40;;
3601;SDS011;1815;50.950;6.920;2023-06-24T01:26:14;5.60;;;5.10;;
3601;SDS011;1815;50.950;6.920;2023-06-24T01:31:44;4.90;;;4.40;;
3601;SDS011;1815;50.950;6.920;2023-06-24T01:34:25;5.70;;;5.10;;
3601;SDS011;1815;50.950;6.920;2023-06-24T01:37:08;4.87;;;4.27;;
3601;SDS011;1815;50.950;6.920;2023-06-24T01:39:46;6.53;;;5.60;;
3601;SDS011;1815;50.950;6.920;2023-06-24T01:42:15;6.73;;;5.20;;
3601;SDS011;1815;50.950;6.920;2023-06-24T01:44:44;5.80;;;5.17;;
3601;SDS011;1815;50.950;6.920;2023-06-24T01:47:12;7.03;;;6.33;;
3601;SDS011;1815;50.950;6.920;2023-06-24T01:49:42;6.03;;;5.43;;
3601;SDS011;1815;50.950;6.920;2023-06-24T01:52:11;7.37;;;6.70;;
3601;SDS011;1815;50.950;6.920;2023-06-24T01:54:39;7.40;;;6.70;;
3601;SDS011;1815;50.950;6.920;2023-06-24T01:57:07;7.10;;;5.80;;
3601;SDS011;1815;50.950;6.920;2023-06-24T01:59:37;6.00;;;5.40;;
3601;SDS011;1815;50.950;6.920;2023-06-24T02:02:06;7.20;;;6.50;;
3601;SDS011;1815;50.950;6.920;2023-06-24T02:04:33;7.83;;;7.03;;
3601;SDS011;1815;50.950;6.920;2023-06-24T02:07:01;6.60;;;6.00;;
3601;SDS011;1815;50.950;6.920;2023-06-24T02:09:29;7.70;;;6.70;;
3601;SDS011;1815;50.950;6.920;2023-06-24T02:11:57;7.83;;;6.80;;
3601;SDS011;1815;50.950;6.920;2023-06-24T02:14:25;7.43;;;6.27;;
3601;SDS011;1815;50.950;6.920;2023-06-24T02:16:53;7.27;;;6.57;;
3601;SDS011;1815;50.950;6.920;2023-06-24T02:19:26;8.00;;;7.20;;
3601;SDS011;1815;50.950;6.920;2023-06-24T02:21:56;8.37;;;7.50;;
3601;SDS011;1815;50.950;6.920;2023-06-24T02:24:27;8.10;;;6.33;;
3601;SDS011;1815;50.950;6.920;2023-06-24T02:26:54;7.83;;;6.30;;
3601;SDS011;1815;50.950;6.920;2023-06-24T02:29:23;9.10;;;7.30;;
3601;SDS011;1815;50.950;6.920;2023-06-24T02:31:53;6.43;;;5.83;;
3601;SDS011;1815;50.950;6.920;2023-06-24T02:34:19;8.50;;;7.47;;
3601;SDS011;1815;50.950;6.920;2023-06-24T02:36:45;7.43;;;6.73;;
3601;SDS011;1815;50.950;6.920;2023-06-24T02:39:11;8.17;;;6.30;;
3601;SDS011;1815;50.950;6.920;2023-06-24T02:41:37;7.07;;;6.37;;
3601;SDS011;1815;50.950;6.920;2023-06-24T02:44:02;6.47;;;5.87;;
3601;SDS011;1815;50.950;6.920;2023-06-24T02:46:28;7.60;;;6.50;;
3601;SDS011;1815;50.950;6.920;2023-06-24T02:48:57;7.33;;;6.63;;
3601;SDS011;1815;50.950;6.920;2023-06-24T02:51:24;7.50;;;5.80;;
3601;SDS011;1815;50.950;6.920;2023-06-24T02:53:51;6.97;;;6.27;;
3601;SDS011;1815;50.950;6.920;2023-06-24T02:56:23;6.80;;;6.10;;
3601;SDS011;1815;50.950;6.920;2023-06-24T02:58:51;6.50;;;5.53;;
3601;SDS011;1815;50.950;6.920;2023-06-24T03:01:22;14.30;;;5.37;;
3601;SDS011;1815;50.950;6.920;2023-06-24T03:03:55;7.17;;;6.43;;
3601;SDS011;1815;50.950;6.920;2023-06-24T03:06:22;7.37;;;5.97;;
3601;SDS011;1815;50.950;6.920;2023-06-24T03:08:49;8.77;;;6.93;;
3601;SDS011;1815;50.950;6.920;2023-06-24T03:11:18;6.37;;;5.77;;
3601;SDS011;1815;50.950;6.920;2023-06-24T03:13:44;7.70;;;7.00;;
3601;SDS011;1815;50.950;6.920;2023-06-24T03:16:13;7.03;;;6.33;;
3601;SDS011;1815;50.950;6.920;2023-06-24T03:18:55;7.20;;;6.33;;
3601;SDS011;1815;50.950;6.920;2023-06-24T03:21:22;6.53;;;5.83;;
3601;SDS011;1815;50.950;6.920;2023-06-24T03:23:54;6.43;;;5.60;;
3601;SDS011;1815;50.950;6.920;2023-06-24T03:26:20;7.60;;;6.30;;
3601;SDS011;1815;50.950;6.920;2023-06-24T03:28:45;6.60;;;5.73;;
3601;SDS011;1815;50.950;6.920;2023-06-24T03:31:15;5.80;;;5.23;;
3601;SDS011;1815;50.950;6.920;2023-06-24T03:33:41;7.43;;;6.67;;
3601;SDS011;1815;50.950;6.920;2023-06-24T03:36:12;8.17;;;6.50;;
3601;SDS011;1815;50.950;6.920;2023-06-24T03:38:38;6.83;;;6.23;;
3601;SDS011;1815;50.950;6.920;2023-06-24T03:41:05;6.60;;;6.00;;
3601;SDS011;1815;50.950;6.920;2023-06-24T03:43:32;7.90;;;6.77;;
3601;SDS011;1815;50.950;6.920;2023-06-24T03:45:58;14.60;;;7.23;;
3601;SDS011;1815;50.950;6.920;2023-06-24T03:48:26;7.60;;;6.80;;
3601;SDS011;1815;50.950;6.920;2023-06-24T03:50:52;6.60;;;5.90;;
3601;SDS011;1815;50.950;6.920;2023-06-24T03:53:20;6.97;;;6.27;;
3601;SDS011;1815;50.950;6.920;2023-06-24T03:55:46;6.73;;;6.13;;
3601;SDS011;1815;50.950;6.920;2023-06-24T03:58:12;6.10;;;5.23;;
3601;SDS011;1815;50.950;6.920;2023-06-24T04:00:39;5.70;;;5.20;;
3601;SDS011;1815;50.950;6.920;2023-06-24T04:03:06;6.87;;;6.23;;
3601;SDS011;1815;50.950;6.920;2023-06-24T04:05:33;6.60;;;5.70;;
3601;SDS011;1815;50.950;6.920;2023-06-24T04:07:59;7.47;;;6.27;;
3601;SDS011;1815;50.950;6.920;2023-06-24T04:10:24;7.17;;;5.80;;
3601;SDS011;1815;50.950;6.920;2023-06-24T04:12:50;6.80;;;6.10;;
3601;SDS011;1815;50.950;6.920;2023-06-24T04:15:16;5.70;;;5.17;;
3601;SDS011;1815;50.950;6.920;2023-06-24T04:17:42;6.50;;;5.80;;
3601;SDS011;1815;50.950;6.920;2023-06-24T04:20:08;7.70;;;6.27;;
3601;SDS011;1815;50.950;6.920;2023-06-24T04:22:38;6.57;;;5.97;;
3601;SDS011;1815;50.950;6.920;2023-06-24T04:25:05;9.20;;;7.30;;
3601;SDS011;1815;50.950;6.920;2023-06-24T04:27:32;7.33;;;6.57;;
3601;SDS011;1815;50.950;6.920;2023-06-24T04:29:59;8.57;;;7.40;;
3601;SDS011;1815;50.950;6.920;2023-06-24T04:32:26;7.00;;;6.17;;
3601;SDS011;1815;50.950;6.920;2023-06-24T04:34:52;13.60;;;7.17;;
3601;SDS011;1815;50.950;6.920;2023-06-24T04:37:19;7.10;;;6.40;;
3601;SDS011;1815;50.950;6.920;2023-06-24T04:39:46;6.80;;;6.20;;
3601;SDS011;1815;50.950;6.920;2023-06-24T04:42:14;6.27;;;5.70;;
3601;SDS011;1815;50.950;6.920;2023-06-24T04:44:40;6.10;;;5.50;;
3601;SDS011;1815;50.950;6.920;2023-06-24T04:47:05;5.50;;;4.90;;
3601;SDS011;1815;50.950;6.920;2023-06-24T04:49:31;6.20;;;5.70;;
3601;SDS011;1815;50.950;6.920;2023-06-24T04:51:59;7.83;;;5.90;;
3601;SDS011;1815;50.950;6.920;2023-06-24T04:54:26;6.87;;;6.17;;
3601;SDS011;1815;50.950;6.920;2023-06-24T04:56:52;7.27;;;5.90;;
3601;SDS011;1815;50.950;6.920;2023-06-24T04:59:20;10.40;;;5.90;;
3601;SDS011;1815;50.950;6.920;2023-06-24T05:01:46;6.03;;;5.40;;
3601;SDS011;1815;50.950;6.920;2023-06-24T05:04:12;5.97;;;5.40;;
3601;SDS011;1815;50.950;6.920;2023-06-24T05:06:38;6.27;;;5.67;;
3601;SDS011;1815;50.950;6.920;2023-06-24T05:09:03;7.60;;;5.97;;
3601;SDS011;1815;50.950;6.920;2023-06-24T05:11:29;7.40;;;6.70;;
3601;SDS011;1815;50.950;6.920;2023-06-24T05:13:55;7.00;;;6.30;;
3601;SDS011;1815;50.950;6.920;2023-06-24T05:16:21;5.73;;;5.23;;
3601;SDS011;1815;50.950;6.920;2023-06-24T05:18:49;5.70;;;5.20;;
3601;SDS011;1815;50.950;6.920;2023-06-24T05:21:15;6.23;;;5.40;;
3601;SDS011;1815;50.950;6.920;2023-06-24T05:23:41;6.90;;;6.30;;
3601;SDS011;1815;50.950;6.920;2023-06-24T05:26:06;6.90;;;5.70;;
3601;SDS011;1815;50.950;6.920;2023-06-24T05:28:32;8.60;;;6.07;;
3601;SDS011;1815;50.950;6.920;2023-06-24T05:31:01;6.07;;;5.50;;
3601;SDS011;1815;50.950;6.920;2023-06-24T05:33:26;7.13;;;5.60;;
3601;SDS011;1815;50.950;6.920;2023-06-24T05:35:52;6.13;;;4.90;;
3601;SDS011;1815;50.950;6.920;2023-06-24T05:38:18;6.97;;;6.00;;
3601;SDS011;1815;50.950;6.920;2023-06-24T05:40:44;7.97;;;6.30;;
3601;SDS011;1815;50.950;6.920;2023-06-24T05:43:10;7.10;;;5.40;;
3601;SDS011;1815;50.950;6.920;2023-06-24T05:45:36;5.77;;;5.07;;
3601;SDS011;1815;50.950;6.920;2023-06-24T05:48:02;5.73;;;5.23;;
3601;SDS011;1815;50.950;6.920;2023-06-24T05:50:28;5.83;;;5.20;;
3601;SDS011;1815;50.950;6.920;2023-06-24T05:52:54;5.53;;;5.07;;
3601;SDS011;1815;50.950;6.920;2023-06-24T05:55:20;4.80;;;4.30;;
3601;SDS011;1815;50.950;6.920;2023-06-24T05:57:46;5.23;;;4.63;;
3601;SDS011;1815;50.950;6.920;2023-06-24T06:00:12;7.10;;;4.70;;
3601;SDS011;1815;50.950;6.920;2023-06-24T06:02:40;5.60;;;5.00;;
3601;SDS011;1815;50.950;6.920;2023-06-24T06:05:06;5.20;;;4.20;;
3601;SDS011;1815;50.950;6.920;2023-06-24T06:07:32;4.17;;;3.50;;
3601;SDS011;1815;50.950;6.920;2023-06-24T06:09:57;4.30;;;3.90;;
3601;SDS011;1815;50.950;6.920;2023-06-24T06:12:23;4.40;;;3.60;;
3601;SDS011;1815;50.950;6.920;2023-06-24T06:14:49;5.20;;;4.07;;
3601;SDS011;1815;50.950;6.920;2023-06-24T06:17:14;4.17;;;3.47;;
3601;SDS011;1815;50.950;6.920;2023-06-24T06:19:40;4.40;;;3.70;;
3601;SDS011;1815;50.950;6.920;2023-06-24T06:22:06;4.40;;;3.50;;
3601;SDS011;1815;50.950;6.920;2023-06-24T06:24:33;5.40;;;4.23;;
3601;SDS011;1815;50.950;6.920;2023-06-24T06:26:59;4.40;;;4.00;;
3601;SDS011;1815;50.950;6.920;2023-06-24T06:29:25;5.30;;;4.00;;
3601;SDS011;1815;50.950;6.920;2023-06-24T06:31:50;4.40;;;4.00;;
3601;SDS011;1815;50.950;6.920;2023-06-24T06:34:18;3.47;;;3.17;;
3601;SDS011;1815;50.950;6.920;2023-06-24T06:36:43;8.03;;;4.20;;
3601;SDS011;1815;50.950;6.920;2023-06-24T06:39:09;4.30;;;3.40;;
3601;SDS011;1815;50.950;6.920;2023-06-24T06:41:35;4.40;;;3.57;;
3601;SDS011;1815;50.950;6.920;2023-06-24T06:44:00;4.00;;;3.20;;
3601;SDS011;1815;50.950;6.920;2023-06-24T06:46:26;4.03;;;3.60;;
3601;SDS011;1815;50.950;6.920;2023-06-24T06:48:52;4.80;;;3.73;;
3601;SDS011;1815;50.950;6.920;2023-06-24T06:51:18;7.80;;;3.60;;
3601;SDS011;1815;50.950;6.920;2023-06-24T06:53:45;4.63;;;3.60;;
3601;SDS011;1815;50.950;6.920;2023-06-24T06:56:22;3.70;;;3.40;;
3601;SDS011;1815;50.950;6.920;2023-06-24T06:58:49;6.50;;;3.10;;
3601;SDS011;1815;50.950;6.920;2023-06-24T07:01:15;4.73;;;3.33;;
3601;SDS011;1815;50.950;6.920;2023-06-24T07:03:42;3.97;;;2.53;;
3601;SDS011;1815;50.950;6.920;2023-06-24T07:06:07;7.07;;;3.10;;
3601;SDS011;1815;50.950;6.920;2023-06-24T07:08:33;5.30;;;3.47;;
3601;SDS011;1815;50.950;6.920;2023-06-24T07:10:59;6.07;;;3.03;;
3601;SDS011;1815;50.950;6.920;2023-06-24T07:13:25;3.97;;;2.80;;
3601;SDS011;1815;50.950;6.920;2023-06-24T07:15:50;3.53;;;3.07;;
3601;SDS011;1815;50.950;6.920;2023-06-24T07:18:16;3.07;;;2.50;;
3601;SDS011;1815;50.950;6.920;2023-06-24T07:20:42;4.13;;;2.40;;
3601;SDS011;1815;50.950;6.920;2023-06-24T07:23:07;4.00;;;2.70;;
3601;SDS011;1815;50.950;6.920;2023-06-24T07:25:33;3.33;;;2.23;;
3601;SDS011;1815;50.950;6.920;2023-06-24T07:27:59;4.33;;;2.13;;
3601;SDS011;1815;50.950;6.920;2023-06-24T07:30:25;3.27;;;2.53;;
3601;SDS011;1815;50.950;6.920;2023-06-24T07:32:51;2.73;;;1.80;;
3601;SDS011;1815;50.950;6.920;2023-06-24T07:35:17;3.13;;;2.83;;
3601;SDS011;1815;50.950;6.920;2023-06-24T07:37:44;4.00;;;2.00;;
3601;SDS011;1815;50.950;6.920;2023-06-24T07:40:10;2.67;;;1.90;;
3601;SDS011;1815;50.950;6.920;2023-06-24T07:42:36;2.77;;;2.10;;
3601;SDS011;1815;50.950;6.920;2023-06-24T07:45:02;3.33;;;2.50;;
3601;SDS011;1815;50.950;6.920;2023-06-24T07:47:28;3.30;;;2.53;;
3601;SDS011;1815;50.950;6.920;2023-06-24T07:49:54;3.80;;;2.83;;
3601;SDS011;1815;50.950;6.920;2023-06-24T07:52:19;3.00;;;2.40;;
3601;SDS011;1815;50.950;6.920;2023-06-24T07:54:45;3.77;;;3.07;;
3601;SDS011;1815;50.950;6.920;2023-06-24T07:57:11;4.90;;;2.70;;
3601;SDS011;1815;50.950;6.920;2023-06-24T07:59:37;3.13;;;2.43;;
3601;SDS011;1815;50.950;6.920;2023-06-24T08:02:02;3.53;;;2.17;;
3601;SDS011;1815;50.950;6.920;2023-06-24T08:04:28;2.97;;;2.60;;
3601;SDS011;1815;50.950;6.920;2023-06-24T08:06:54;4.37;;;3.20;;
3601;SDS011;1815;50.950;6.920;2023-06-24T08:09:19;4.53;;;2.80;;
3601;SDS011;1815;50.950;6.920;2023-06-24T08:11:45;3.10;;;2.80;;
3601;SDS011;1815;50.950;6.920;2023-06-24T08:14:11;3.73;;;2.53;;
3601;SDS011;1815;50.950;6.920;2023-06-24T08:16:37;5.00;;;2.73;;
3601;SDS011;1815;50.950;6.920;2023-06-24T08:19:03;3.83;;;2.87;;
3601;SDS011;1815;50.950;6.920;2023-06-24T08:21:28;2.73;;;2.00;;
3601;SDS011;1815;50.950;6.920;2023-06-24T08:23:55;4.73;;;3.10;;
3601;SDS011;1815;50.950;6.920;2023-06-24T08:26:21;4.77;;;2.50;;
3601;SDS011;1815;50.950;6.920;2023-06-24T08:28:47;3.30;;;3.00;;
3601;SDS011;1815;50.950;6.920;2023-06-24T08:31:13;3.87;;;2.90;;
3601;SDS011;1815;50.950;6.920;2023-06-24T08:33:41;4.23;;;3.13;;
3601;SDS011;1815;50.950;6.920;2023-06-24T08:36:10;3.53;;;2.40;;
3601;SDS011;1815;50.950;6.920;2023-06-24T08:38:36;4.00;;;2.40;;
3601;SDS011;1815;50.950;6.920;2023-06-24T08:41:02;3.07;;;2.23;;
3601;SDS011;1815;50.950;6.920;2023-06-24T08:43:28;2.80;;;2.30;;
3601;SDS011;1815;50.950;6.920;2023-06-24T08:45:53;3.17;;;2.37;;
3601;SDS011;1815;50.950;6.920;2023-06-24T08:48:19;3.57;;;2.23;;
3601;SDS011;1815;50.950;6.920;2023-06-24T08:50:46;2.73;;;2.10;;
3601;SDS011;1815;50.950;6.920;2023-06-24T08:53:18;5.37;;;2.43;;
3601;SDS011;1815;50.950;6.920;2023-06-24T08:55:45;2.60;;;2.37;;
3601;SDS011;1815;50.950;6.920;2023-06-24T08:58:12;4.13;;;1.97;;
3601;SDS011;1815;50.950;6.920;2023-06-24T09:00:41;3.90;;;2.80;;
3601;SDS011;1815;50.950;6.920;2023-06-24T09:03:08;2.97;;;2.67;;
3601;SDS011;1815;50.950;6.920;2023-06-24T09:05:34;3.17;;;2.50;;
3601;SDS011;1815;50.950;6.920;2023-06-24T09:07:59;4.50;;;2.37;;
3601;SDS011;1815;50.950;6.920;2023-06-24T09:10:30;3.47;;;2.50;;
3601;SDS011;1815;50.950;6.920;2023-06-24T09:13:03;3.47;;;2.23;;
3601;SDS011;1815;50.950;6.920;2023-06-24T09:15:36;5.07;;;2.67;;
3601;SDS011;1815;50.950;6.920;2023-06-24T09:18:03;4.30;;;2.23;;
3601;SDS011;1815;50.950;6.920;2023-06-24T09:20:30;4.40;;;2.63;;
3601;SDS011;1815;50.950;6.920;2023-06-24T09:23:00;2.63;;;1.87;;
3601;SDS011;1815;50.950;6.920;2023-06-24T09:25:30;3.13;;;2.10;;
3601;SDS011;1815;50.950;6.920;2023-06-24T09:27:59;3.80;;;2.60;;
3601;SDS011;1815;50.950;6.920;2023-06-24T09:30:26;2.93;;;2.30;;
3601;SDS011;1815;50.950;6.920;2023-06-24T09:32:52;2.20;;;1.60;;
3601;SDS011;1815;50.950;6.920;2023-06-24T09:35:19;2.87;;;2.17;;
3601;SDS011;1815;50.950;6.920;2023-06-24T09:37:50;2.53;;;1.77;;
3601;SDS011;1815;50.950;6.920;2023-06-24T09:40:20;2.40;;;2.03;;
3601;SDS011;1815;50.950;6.920;2023-06-24T09:42:54;3.23;;;2.50;;
3601;SDS011;1815;50.950;6.920;2023-06-24T09:45:26;3.00;;;2.23;;
3601;SDS011;1815;50.950;6.920;2023-06-24T09:47:53;3.30;;;2.00;;
3601;SDS011;1815;50.950;6.920;2023-06-24T09:50:20;3.30;;;2.47;;
3601;SDS011;1815;50.950;6.920;2023-06-24T09:52:46;2.50;;;1.63;;
3601;SDS011;1815;50.950;6.920;2023-06-24T09:55:14;3.60;;;1.83;;
3601;SDS011;1815;50.950;6.920;2023-06-24T09:57:45;3.20;;;1.70;;
3601;SDS011;1815;50.950;6.920;2023-06-24T10:00:14;3.70;;;2.00;;
3601;SDS011;1815;50.950;6.920;2023-06-24T10:02:43;3.10;;;1.87;;
3601;SDS011;1815;50.950;6.920;2023-06-24T10:05:11;3.43;;;2.10;;
3601;SDS011;1815;50.950;6.920;2023-06-24T10:07:38;4.70;;;2.33;;
3601;SDS011;1815;50.950;6.920;2023-06-24T10:10:05;3.83;;;2.63;;
3601;SDS011;1815;50.950;6.920;2023-06-24T10:12:33;2.20;;;1.97;;
3601;SDS011;1815;50.950;6.920;2023-06-24T10:15:00;3.63;;;2.23;;
3601;SDS011;1815;50.950;6.920;2023-06-24T10:17:26;2.00;;;1.53;;
3601;SDS011;1815;50.950;6.920;2023-06-24T10:19:52;2.80;;;1.40;;
3601;SDS011;1815;50.950;6.920;2023-06-24T10:22:24;2.33;;;1.90;;
3601;SDS011;1815;50.950;6.920;2023-06-24T10:24:51;3.20;;;1.60;;
3601;SDS011;1815;50.950;6.920;2023-06-24T10:27:18;2.70;;;2.00;;
3601;SDS011;1815;50.950;6.920;2023-06-24T10:29:49;2.37;;;2.10;;
3601;SDS011;1815;50.950;6.920;2023-06-24T10:32:17;2.23;;;1.87;;
3601;SDS011;1815;50.950;6.920;2023-06-24T10:34:45;2.83;;;2.30;;
3601;SDS011;1815;50.950;6.920;2023-06-24T10:37:13;2.60;;;1.97;;
3601;SDS011;1815;50.950;6.920;2023-06-24T10:39:53;2.90;;;1.70;;
3601;SDS011;1815;50.950;6.920;2023-06-24T10:44:58;3.47;;;2.53;;
3601;SDS011;1815;50.950;6.920;2023-06-24T10:47:27;2.20;;;1.90;;
3601;SDS011;1815;50.950;6.920;2023-06-24T10:49:54;2.63;;;1.93;;
3601;SDS011;1815;50.950;6.920;2023-06-24T10:52:20;2.17;;;1.40;;
3601;SDS011;1815;50.950;6.920;2023-06-24T10:54:48;1.97;;;1.37;;
3601;SDS011;1815;50.950;6.920;2023-06-24T10:57:16;2.93;;;1.43;;
3601;SDS011;1815;50.950;6.920;2023-06-24T10:59:49;3.10;;;2.10;;
3601;SDS011;1815;50.950;6.920;2023-06-24T11:02:17;2.30;;;1.70;;
3601;SDS011;1815;50.950;6.920;2023-06-24T11:04:45;2.37;;;1.47;;
3601;SDS011;1815;50.950;6.920;2023-06-24T11:07:11;3.37;;;1.77;;
3601;SDS011;1815;50.950;6.920;2023-06-24T11:09:37;3.20;;;1.43;;
3601;SDS011;1815;50.950;6.920;2023-06-24T11:12:03;4.83;;;1.60;;
3601;SDS011;1815;50.950;6.920;2023-06-24T11:14:29;2.47;;;1.57;;
3601;SDS011;1815;50.950;6.920;2023-06-24T11:16:55;3.27;;;1.90;;
3601;SDS011;1815;50.950;6.920;2023-06-24T11:19:20;3.07;;;1.63;;
3601;SDS011;1815;50.950;6.920;2023-06-24T11:21:46;2.53;;;1.50;;
3601;SDS011;1815;50.950;6.920;2023-06-24T11:24:12;2.40;;;1.30;;
3601;SDS011;1815;50.950;6.920;2023-06-24T11:26:38;2.50;;;1.40;;
3601;SDS011;1815;50.950;6.920;2023-06-24T11:29:13;3.20;;;1.87;;
3601;SDS011;1815;50.950;6.920;2023-06-24T11:31:38;2.27;;;1.57;;
3601;SDS011;1815;50.950;6.920;2023-06-24T11:34:04;2.47;;;1.60;;
3601;SDS011;1815;50.950;6.920;2023-06-24T11:36:30;3.60;;;1.63;;
3601;SDS011;1815;50.950;6.920;2023-06-24T11:38:56;2.20;;;1.50;;
3601;SDS011;1815;50.950;6.920;2023-06-24T11:41:22;2.20;;;1.50;;
3601;SDS011;1815;50.950;6.920;2023-06-24T11:43:50;2.20;;;1.40;;
3601;SDS011;1815;50.950;6.920;2023-06-24T11:46:26;3.60;;;2.10;;
3601;SDS011;1815;50.950;6.920;2023-06-24T11:49:05;3.67;;;2.67;;
3601;SDS011;1815;50.950;6.920;2023-06-24T11:51:35;3.33;;;2.43;;
3601;SDS011;1815;50.950;6.920;2023-06-24T11:54:05;5.30;;;2.30;;
3601;SDS011;1815;50.950;6.920;2023-06-24T11:56:37;2.40;;;1.83;;
3601;SDS011;1815;50.950;6.920;2023-06-24T11:59:04;2.97;;;1.50;;
3601;SDS011;1815;50.950;6.920;2023-06-24T12:01:31;2.90;;;1.90;;
3601;SDS011;1815;50.950;6.920;2023-06-24T12:03:59;2.43;;;1.63;;
3601;SDS011;1815;50.950;6.920;2023-06-24T12:06:26;4.03;;;2.00;;
3601;SDS011;1815;50.950;6.920;2023-06-24T12:08:52;3.40;;;1.80;;
3601;SDS011;1815;50.950;6.920;2023-06-24T12:11:18;2.13;;;1.57;;
3601;SDS011;1815;50.950;6.920;2023-06-24T12:13:43;4.27;;;2.03;;
3601;SDS011;1815;50.950;6.920;2023-06-24T12:16:09;3.17;;;1.73;;
3601;SDS011;1815;50.950;6.920;2023-06-24T12:18:35;3.10;;;2.27;;
3601;SDS011;1815;50.950;6.920;2023-06-24T12:21:00;4.77;;;2.40;;
3601;SDS011;1815;50.950;6.920;2023-06-24T12:23:26;2.90;;;2.07;;
3601;SDS011;1815;50.950;6.920;2023-06-24T12:25:52;6.03;;;2.40;;
3601;SDS011;1815;50.950;6.920;2023-06-24T12:28:18;4.70;;;2.70;;
3601;SDS011;1815;50.950;6.920;2023-06-24T12:30:43;3.50;;;2.30;;
3601;SDS011;1815;50.950;6.920;2023-06-24T12:33:09;2.77;;;2.20;;
3601;SDS011;1815;50.950;6.920;2023-06-24T12:35:35;3.63;;;2.10;;
3601;SDS011;1815;50.950;6.920;2023-06-24T12:38:00;3.70;;;2.30;;
3601;SDS011;1815;50.950;6.920;2023-06-24T12:40:26;2.83;;;1.90;;
3601;SDS011;1815;50.950;6.920;2023-06-24T12:42:52;3.23;;;2.30;;
3601;SDS011;1815;50.950;6.920;2023-06-24T12:45:18;3.30;;;2.20;;
3601;SDS011;1815;50.950;6.920;2023-06-24T12:47:44;2.90;;;1.77;;
3601;SDS011;1815;50.950;6.920;2023-06-24T12:50:09;3.20;;;1.90;;
3601;SDS011;1815;50.950;6.920;2023-06-24T12:52:35;3.80;;;2.00;;
3601;SDS011;1815;50.950;6.920;2023-06-24T12:55:02;4.77;;;4.30;;
3601;SDS011;1815;50.950;6.920;2023-06-24T12:57:29;2.60;;;2.00;;
3601;SDS011;1815;50.950;6.920;2023-06-24T12:59:54;6.30;;;2.40;;
3601;SDS011;1815;50.950;6.920;2023-06-24T13:02:20;4.00;;;2.10;;
3601;SDS011;1815;50.950;6.920;2023-06-24T13:04:46;3.80;;;1.93;;
3601;SDS011;1815;50.950;6.920;2023-06-24T13:07:12;4.50;;;2.53;;
3601;SDS011;1815;50.950;6.920;2023-06-24T13:09:38;3.30;;;2.10;;
3601;SDS011;1815;50.950;6.920;2023-06-24T13:12:04;3.57;;;2.30;;
3601;SDS011;1815;50.950;6.920;2023-06-24T13:14:30;3.40;;;2.77;;
3601;SDS011;1815;50.950;6.920;2023-06-24T13:16:56;4.73;;;3.73;;
3601;SDS011;1815;50.950;6.920;2023-06-24T13:19:22;5.43;;;2.40;;
3601;SDS011;1815;50.950;6.920;2023-06-24T13:21:48;3.17;;;2.13;;
3601;SDS011;1815;50.950;6.920;2023-06-24T13:24:14;3.77;;;1.80;;
3601;SDS011;1815;50.950;6.920;2023-06-24T13:26:39;4.13;;;1.80;;
3601;SDS011;1815;50.950;6.920;2023-06-24T13:29:05;4.00;;;1.93;;
3601;SDS011;1815;50.950;6.920;2023-06-24T13:31:32;3.00;;;2.20;;
3601;SDS011;1815;50.950;6.920;2023-06-24T13:33:58;4.60;;;2.70;;
3601;SDS011;1815;50.950;6.920;2023-06-24T13:36:33;2.70;;;1.93;;
3601;SDS011;1815;50.950;6.920;2023-06-24T13:39:06;2.90;;;1.87;;
3601;SDS011;1815;50.950;6.920;2023-06-24T13:41:33;3.30;;;2.00;;
3601;SDS011;1815;50.950;6.920;2023-06-24T13:44:00;2.87;;;2.10;;
3601;SDS011;1815;50.950;6.920;2023-06-24T13:46:27;4.00;;;2.73;;
3601;SDS011;1815;50.950;6.920;2023-06-24T13:48:54;2.67;;;1.87;;
3601;SDS011;1815;50.950;6.920;2023-06-24T13:51:21;2.77;;;2.10;;
3601;SDS011;1815;50.950;6.920;2023-06-24T13:53:48;3.23;;;2.30;;
3601;SDS011;1815;50.950;6.920;2023-06-24T13:56:16;4.40;;;2.60;;
3601;SDS011;1815;50.950;6.920;2023-06-24T13:58:43;2.77;;;2.00;;
3601;SDS011;1815;50.950;6.920;2023-06-24T14:01:09;3.00;;;2.40;;
3601;SDS011;1815;50.950;6.920;2023-06-24T14:03:35;2.57;;;1.57;;
3601;SDS011;1815;50.950;6.920;2023-06-24T14:06:01;2.67;;;1.80;;
3601;SDS011;1815;50.950;6.920;2023-06-24T14:08:27;2.83;;;1.40;;
3601;SDS011;1815;50.950;6.920;2023-06-24T14:10:54;3.13;;;1.30;;
3601;SDS011;1815;50.950;6.920;2023-06-24T14:13:21;2.60;;;1.83;;
3601;SDS011;1815;50.950;6.920;2023-06-24T14:15:46;3.57;;;2.13;;
3601;SDS011;1815;50.950;6.920;2023-06-24T14:18:12;2.30;;;1.50;;
3601;SDS011;1815;50.950;6.920;2023-06-24T14:20:38;2.47;;;1.50;;
3601;SDS011;1815;50.950;6.920;2023-06-24T14:23:04;2.60;;;1.50;;
3601;SDS011;1815;50.950;6.920;2023-06-24T14:25:30;4.10;;;1.93;;
3601;SDS011;1815;50.950;6.920;2023-06-24T14:27:56;3.20;;;2.00;;
3601;SDS011;1815;50.950;6.920;2023-06-24T14:30:22;4.43;;;1.50;;
3601;SDS011;1815;50.950;6.920;2023-06-24T14:32:47;2.30;;;1.53;;
3601;SDS011;1815;50.950;6.920;2023-06-24T14:35:13;2.40;;;1.50;;
3601;SDS011;1815;50.950;6.920;2023-06-24T14:37:39;2.53;;;1.60;;
3601;SDS011;1815;50.950;6.920;2023-06-24T14:40:08;2.10;;;1.30;;
3601;SDS011;1815;50.950;6.920;2023-06-24T14:42:35;2.07;;;1.30;;
3601;SDS011;1815;50.950;6.920;2023-06-24T14:45:01;3.60;;;2.00;;
3601;SDS011;1815;50.950;6.920;2023-06-24T14:47:26;2.93;;;2.27;;
3601;SDS011;1815;50.950;6.920;2023-06-24T14:49:52;3.50;;;1.97;;
3601;SDS011;1815;50.950;6.920;2023-06-24T14:52:18;4.00;;;2.00;;
3601;SDS011;1815;50.950;6.920;2023-06-24T14:54:45;2.07;;;1.33;;
3601;SDS011;1815;50.950;6.920;2023-06-24T14:57:12;3.40;;;1.60;;
3601;SDS011;1815;50.950;6.920;2023-06-24T14:59:37;2.00;;;1.43;;
3601;SDS011;1815;50.950;6.920;2023-06-24T15:02:03;2.67;;;1.30;;
3601;SDS011;1815;50.950;6.920;2023-06-24T15:04:29;1.90;;;1.30;;
3601;SDS011;1815;50.950;6.920;2023-06-24T15:06:55;2.20;;;1.50;;
3601;SDS011;1815;50.950;6.920;2023-06-24T15:09:22;3.73;;;1.40;;
3601;SDS011;1815;50.950;6.920;2023-06-24T15:11:48;3.13;;;1.10;;
3601;SDS011;1815;50.950;6.920;2023-06-24T15:14:14;2.17;;;1.30;;
3601;SDS011;1815;50.950;6.920;2023-06-24T15:16:39;4.30;;;1.40;;
3601;SDS011;1815;50.950;6.920;2023-06-24T15:19:05;5.60;;;2.23;;
3601;SDS011;1815;50.950;6.920;2023-06-24T15:21:31;2.00;;;1.30;;
3601;SDS011;1815;50.950;6.920;2023-06-24T15:23:56;2.37;;;1.57;;
3601;SDS011;1815;50.950;6.920;2023-06-24T15:26:22;3.80;;;1.20;;
3601;SDS011;1815;50.950;6.920;2023-06-24T15:28:48;2.30;;;1.20;;